Time;durP1;ratioP1;P1;durP2;ratioP2;P2;SDS_P1;SDS_P2;PMS_P1;PMS_P2;Temp;Humidity;BMP_temperature;BMP_pressure;BME280_temperature;BME280_humidity;BME280_pressure;Samples;Min_cycle;Max_cycle;Signal;HPM_P1;HPM_P2
2022/12/24 00:02:13;;;;;;;46.58;26.13;;;7.00;99.90;;;;;;5022315;28;20041;-75
2022/12/24 00:04:38;;;;;;;49.35;26.50;;;7.00;99.90;;;;;;5022403;28;20454;-75
2022/12/24 00:07:04;;;;;;;53.00;28.15;;;7.00;99.90;;;;;;5024350;28;20057;-75
2022/12/24 00:09:30;;;;;;;48.00;27.30;;;6.90;99.90;;;;;;5018000;28;20116;-75
2022/12/24 00:11:56;;;;;;;49.85;27.05;;;6.90;99.90;;;;;;5035014;28;20037;-75
2022/12/24 00:14:21;;;;;;;55.13;28.88;;;7.00;99.90;;;;;;5018725;28;20076;-75
2022/12/24 00:16:47;;;;;;;44.53;24.88;;;6.90;99.90;;;;;;5022615;28;20489;-75
2022/12/24 00:19:12;;;;;;;44.90;25.63;;;7.00;99.90;;;;;;5021275;28;20042;-75
2022/12/24 00:21:38;;;;;;;47.67;27.58;;;7.00;99.90;;;;;;5020475;28;20049;-75
2022/12/24 00:24:04;;;;;;;54.58;28.10;;;7.00;99.90;;;;;;5021838;28;20073;-75
2022/12/24 00:26:32;;;;;;;45.80;26.02;;;7.00;99.90;;;;;;5022445;28;20522;-75
2022/12/24 00:28:57;;;;;;;51.88;27.90;;;7.00;99.90;;;;;;5023400;28;20616;-75
2022/12/24 00:31:23;;;;;;;48.00;26.52;;;6.90;99.90;;;;;;5021265;28;20045;-75
2022/12/24 00:33:49;;;;;;;57.95;28.85;;;7.00;99.90;;;;;;5022968;28;20068;-75
2022/12/24 00:36:15;;;;;;;54.95;29.05;;;7.00;99.90;;;;;;5022852;28;20099;-75
2022/12/24 00:38:40;;;;;;;46.28;26.02;;;7.00;99.90;;;;;;5025295;28;20053;-75
2022/12/24 00:41:23;;;;;;;54.45;28.85;;;7.00;99.90;;;;;;5023840;28;20045;-75
2022/12/24 00:43:53;;;;;;;47.70;26.73;;;7.00;99.90;;;;;;5028512;28;20451;-75
2022/12/24 00:46:19;;;;;;;68.95;29.92;;;7.00;99.90;;;;;;5026968;28;20095;-75
2022/12/24 00:48:45;;;;;;;49.88;26.95;;;7.00;99.90;;;;;;5027097;28;20129;-75
2022/12/24 00:51:10;;;;;;;57.30;28.15;;;7.00;99.90;;;;;;5028622;28;20037;-75
2022/12/24 00:53:36;;;;;;;51.45;27.63;;;7.00;99.90;;;;;;5026071;28;20049;-75
2022/12/24 00:56:02;;;;;;;63.97;29.10;;;7.00;99.90;;;;;;5020551;28;20057;-75
2022/12/24 00:58:27;;;;;;;44.38;25.48;;;7.00;99.90;;;;;;5021377;28;20506;-75
2022/12/24 01:00:53;;;;;;;45.78;25.23;;;7.00;99.90;;;;;;5019790;28;20123;-75
2022/12/24 01:03:18;;;;;;;49.72;26.02;;;7.00;99.90;;;;;;5021553;28;20065;-75
2022/12/24 01:05:44;;;;;;;43.97;25.88;;;7.00;99.90;;;;;;5020344;28;20074;-75
2022/12/24 01:08:13;;;;;;;44.55;25.55;;;7.00;99.90;;;;;;5020827;28;20049;-75
2022/12/24 01:10:39;;;;;;;45.67;26.25;;;7.00;99.90;;;;;;5021236;28;20052;-75
2022/12/24 01:13:04;;;;;;;46.70;24.65;;;7.10;99.90;;;;;;5024912;28;20038;-75
2022/12/24 01:15:30;;;;;;;51.58;28.02;;;7.00;99.90;;;;;;5023048;28;20057;-75
2022/12/24 01:17:57;;;;;;;45.53;25.10;;;7.00;99.90;;;;;;5021523;28;20415;-75
2022/12/24 01:20:25;;;;;;;46.88;23.98;;;7.10;99.90;;;;;;5024027;28;20466;-75
2022/12/24 01:22:51;;;;;;;44.67;25.98;;;7.00;99.90;;;;;;5025555;28;20131;-75
2022/12/24 01:25:17;;;;;;;48.60;25.70;;;7.00;99.90;;;;;;5027335;28;20793;-75
2022/12/24 01:27:43;;;;;;;43.47;24.63;;;7.00;99.90;;;;;;5025039;28;20080;-75
2022/12/24 01:30:13;;;;;;;73.80;33.22;;;7.10;99.90;;;;;;5025822;28;20053;-75
2022/12/24 01:32:39;;;;;;;57.13;30.23;;;7.10;99.90;;;;;;5025327;28;20507;-75
2022/12/24 01:35:05;;;;;;;61.22;29.15;;;7.10;99.90;;;;;;5024694;28;20048;-75
2022/12/24 01:37:30;;;;;;;66.25;34.72;;;7.10;99.90;;;;;;5038644;28;20045;-75
2022/12/24 01:43:22;;;;;;;76.60;37.45;;;7.10;99.90;;;;;;5025536;28;20060;-75
2022/12/24 01:45:49;;;;;;;86.15;38.22;;;7.20;99.90;;;;;;5023980;28;20050;-75
2022/12/24 01:48:19;;;;;;;78.97;36.30;;;7.20;99.90;;;;;;5026069;28;20617;-75
2022/12/24 01:50:45;;;;;;;85.53;39.72;;;7.20;99.90;;;;;;5023140;28;20150;-75
2022/12/24 01:53:13;;;;;;;92.38;39.58;;;7.30;99.90;;;;;;5025138;28;20046;-75
2022/12/24 01:55:39;;;;;;;86.90;40.58;;;7.30;99.90;;;;;;5024005;28;20129;-75
2022/12/24 01:58:08;;;;;;;108.43;42.40;;;7.30;99.90;;;;;;5023426;28;20045;-75
2022/12/24 02:00:34;;;;;;;92.40;41.72;;;7.30;99.90;;;;;;5020498;28;20477;-75
2022/12/24 02:03:00;;;;;;;111.30;43.05;;;7.40;99.90;;;;;;5022868;28;20124;-75
2022/12/24 02:05:35;;;;;;;95.93;40.28;;;7.40;99.90;;;;;;5022866;28;20049;-75
2022/12/24 02:08:03;;;;;;;84.72;36.85;;;7.40;99.90;;;;;;5022206;28;20061;-75
2022/12/24 02:10:28;;;;;;;88.97;37.28;;;7.50;99.90;;;;;;5020579;28;20093;-75
2022/12/24 02:12:55;;;;;;;79.88;36.92;;;7.50;99.90;;;;;;5020037;28;20041;-75
2022/12/24 02:15:21;;;;;;;79.53;35.10;;;7.50;99.90;;;;;;5024215;28;20045;-75
2022/12/24 02:18:01;;;;;;;71.47;34.05;;;7.50;99.90;;;;;;5022852;28;20925;-75
2022/12/24 02:20:36;;;;;;;80.38;36.67;;;7.60;99.90;;;;;;5022644;28;20053;-75
2022/12/24 02:23:25;;;;;;;79.60;35.60;;;7.60;99.90;;;;;;5023379;28;20076;-75
2022/12/24 02:26:30;;;;;;;77.07;36.28;;;7.60;99.90;;;;;;5024953;28;20060;-75
2022/12/24 02:29:15;;;;;;;74.60;36.17;;;7.60;99.90;;;;;;5021408;28;20053;-75
2022/12/24 02:31:48;;;;;;;66.78;36.08;;;7.60;99.90;;;;;;5024168;28;20539;-75
2022/12/24 02:34:31;;;;;;;70.82;33.90;;;7.60;99.90;;;;;;5020766;28;20052;-75
2022/12/24 02:37:06;;;;;;;55.95;31.25;;;7.70;99.90;;;;;;5023794;28;20179;-75
2022/12/24 02:39:59;;;;;;;60.95;31.73;;;7.70;99.90;;;;;;5023109;28;20041;-75
2022/12/24 02:42:34;;;;;;;55.47;28.27;;;7.80;99.90;;;;;;5023662;28;20049;-75
2022/12/24 02:45:04;;;;;;;54.08;29.45;;;7.80;99.90;;;;;;5022787;28;20073;-75
2022/12/24 02:47:31;;;;;;;56.38;27.40;;;7.80;99.90;;;;;;5020723;28;20053;-75
2022/12/24 02:49:59;;;;;;;53.97;28.88;;;7.80;99.90;;;;;;5022604;28;20046;-75
2022/12/24 02:52:34;;;;;;;44.85;24.05;;;7.90;99.90;;;;;;5017088;28;20053;-75
2022/12/24 02:55:04;;;;;;;50.67;25.52;;;7.90;99.90;;;;;;5019987;28;20494;-75
2022/12/24 02:57:51;;;;;;;43.65;21.90;;;7.90;99.90;;;;;;5018278;28;20088;-75
2022/12/24 03:00:20;;;;;;;41.58;21.27;;;8.00;99.90;;;;;;5019458;28;20041;-75
2022/12/24 03:03:11;;;;;;;31.92;18.02;;;8.00;99.90;;;;;;5018790;28;20559;-74
2022/12/24 03:06:06;;;;;;;30.23;17.02;;;8.00;99.90;;;;;;5018418;28;20767;-75
2022/12/24 03:08:50;;;;;;;27.15;14.98;;;8.00;99.90;;;;;;5022802;28;20137;-75
2022/12/24 03:11:16;;;;;;;26.10;13.77;;;8.00;99.90;;;;;;5026690;28;20072;-75
2022/12/24 03:13:43;;;;;;;25.20;13.05;;;8.10;99.90;;;;;;5015163;28;20065;-75
2022/12/24 03:16:16;;;;;;;26.95;13.98;;;8.10;99.90;;;;;;5018256;28;20568;-75
2022/12/24 03:18:46;;;;;;;39.20;14.35;;;8.10;99.90;;;;;;5017930;28;20064;-75
2022/12/24 03:21:19;;;;;;;34.08;16.75;;;8.10;99.90;;;;;;5015357;28;20046;-75
2022/12/24 03:23:45;;;;;;;32.97;17.17;;;8.10;99.90;;;;;;5015365;28;20057;-75
2022/12/24 03:26:12;;;;;;;28.08;15.40;;;8.20;99.90;;;;;;5018917;28;20164;-75
2022/12/24 03:28:40;;;;;;;32.55;15.23;;;8.10;99.90;;;;;;5021991;28;20049;-75
2022/12/24 03:31:06;;;;;;;46.80;14.47;;;8.20;99.90;;;;;;5021535;28;20071;-75
2022/12/24 03:33:32;;;;;;;48.03;13.75;;;8.20;99.90;;;;;;5018146;28;20359;-75
2022/12/24 03:35:58;;;;;;;59.33;14.95;;;8.20;99.90;;;;;;5017907;28;20418;-75
2022/12/24 03:38:23;;;;;;;41.17;14.07;;;8.20;99.90;;;;;;5020524;28;20037;-75
2022/12/24 03:40:49;;;;;;;63.33;14.07;;;8.20;99.90;;;;;;5025491;28;20044;-75
2022/12/24 03:43:15;;;;;;;53.83;11.57;;;8.20;99.90;;;;;;5023373;28;20716;-75
2022/12/24 03:45:40;;;;;;;42.25;11.30;;;8.20;99.90;;;;;;5018892;28;20052;-75
2022/12/24 03:48:06;;;;;;;49.67;11.60;;;8.20;99.90;;;;;;5017840;28;20041;-75
2022/12/24 03:50:32;;;;;;;67.07;12.70;;;8.30;99.90;;;;;;5018320;28;20487;-75
2022/12/24 03:52:58;;;;;;;61.40;11.90;;;8.20;99.90;;;;;;5018038;28;20464;-74
2022/12/24 03:55:23;;;;;;;56.28;11.73;;;8.20;99.90;;;;;;5018088;28;20076;-75
2022/12/24 03:57:49;;;;;;;57.83;11.55;;;8.20;99.90;;;;;;5017928;28;20115;-75
2022/12/24 04:00:15;;;;;;;54.20;12.23;;;8.20;99.90;;;;;;5017598;28;20510;-75
2022/12/24 04:02:41;;;;;;;76.10;13.88;;;8.20;99.90;;;;;;5018853;28;20050;-74
2022/12/24 04:05:09;;;;;;;64.22;12.57;;;8.20;99.90;;;;;;5018635;28;20069;-75
2022/12/24 04:07:35;;;;;;;;;;;8.30;99.90;;;;;;5019373;28;20123;-75
2022/12/24 04:10:01;;;;;;;48.25;10.43;;;8.20;99.90;;;;;;5017726;28;20019;-75
2022/12/24 04:12:26;;;;;;;77.72;12.68;;;8.20;99.90;;;;;;5019573;28;20077;-75
2022/12/24 04:14:52;;;;;;;41.58;10.48;;;8.20;99.90;;;;;;5021915;28;20045;-75
2022/12/24 04:17:18;;;;;;;39.13;9.98;;;8.20;99.90;;;;;;5021102;28;20076;-75
2022/12/24 04:19:43;;;;;;;50.85;10.07;;;8.20;99.90;;;;;;5023616;28;20041;-75
2022/12/24 04:22:09;;;;;;;45.00;10.63;;;8.20;99.90;;;;;;5022286;28;20053;-75
2022/12/24 04:24:34;;;;;;;71.50;12.32;;;8.20;99.90;;;;;;5021884;28;20045;-75
2022/12/24 04:27:00;;;;;;;50.47;10.93;;;8.20;99.90;;;;;;5023510;28;20472;-75
2022/12/24 04:29:26;;;;;;;49.05;10.93;;;8.20;99.90;;;;;;5024199;28;20057;-75
2022/12/24 04:31:51;;;;;;;48.47;13.43;;;8.20;99.90;;;;;;5025473;28;20144;-75
2022/12/24 04:34:17;;;;;;;45.85;11.65;;;8.20;99.90;;;;;;5024422;28;20048;-75
2022/12/24 04:36:43;;;;;;;47.30;10.48;;;8.20;99.90;;;;;;5025175;28;20042;-75
2022/12/24 04:39:08;;;;;;;68.60;12.02;;;8.20;99.90;;;;;;5022609;28;20045;-75
2022/12/24 04:41:34;;;;;;;47.90;12.18;;;8.20;99.90;;;;;;5021650;28;21641;-75
2022/12/24 04:43:59;;;;;;;39.97;9.68;;;8.20;99.90;;;;;;5023914;28;20046;-75
2022/12/24 04:46:29;;;;;;;47.25;11.95;;;8.20;99.90;;;;;;5023017;28;20049;-75
2022/12/24 04:48:56;;;;;;;64.25;10.32;;;8.20;99.90;;;;;;5018781;28;20058;-75
2022/12/24 04:51:23;;;;;;;47.08;11.70;;;8.20;99.90;;;;;;5019925;28;20052;-75
2022/12/24 04:53:49;;;;;;;61.70;11.43;;;8.20;99.90;;;;;;5021252;28;20041;-75
2022/12/24 04:56:23;;;;;;;50.35;10.30;;;8.20;99.90;;;;;;5021536;28;20376;-75
2022/12/24 04:58:49;;;;;;;44.03;12.00;;;8.20;99.90;;;;;;5022001;28;20060;-75
2022/12/24 05:01:19;;;;;;;49.25;11.15;;;8.20;99.90;;;;;;5024027;28;20060;-75
2022/12/24 05:03:45;;;;;;;65.05;14.05;;;8.10;99.90;;;;;;5021727;28;20050;-75
2022/12/24 05:06:14;;;;;;;54.75;11.23;;;8.20;99.90;;;;;;5018403;28;20056;-75
2022/12/24 05:08:40;;;;;;;58.75;13.40;;;8.20;99.90;;;;;;5021422;28;20053;-75
2022/12/24 05:11:06;;;;;;;58.03;12.63;;;8.10;99.90;;;;;;5020305;28;20048;-75
2022/12/24 05:13:32;;;;;;;54.85;10.13;;;8.20;99.90;;;;;;5019095;28;20046;-75
2022/12/24 05:15:59;;;;;;;59.40;12.98;;;8.20;99.90;;;;;;5021632;28;20136;-75
2022/12/24 05:18:25;;;;;;;54.15;12.20;;;8.20;99.90;;;;;;5001457;28;20038;-75
2022/12/24 05:20:51;;;;;;;55.60;12.10;;;8.20;99.90;;;;;;5019608;28;20086;-75
2022/12/24 05:26:23;;;;;;;74.85;14.13;;;8.20;99.90;;;;;;5020229;28;20164;-75
2022/12/24 05:28:51;;;;;;;48.67;11.50;;;8.20;99.90;;;;;;5020839;28;20053;-75
2022/12/24 05:31:17;;;;;;;47.15;12.02;;;8.20;99.90;;;;;;5019551;28;20053;-75
2022/12/24 05:33:43;;;;;;;63.47;14.23;;;8.10;99.90;;;;;;5019870;28;20091;-75
2022/12/24 05:36:09;;;;;;;69.40;13.75;;;8.10;99.90;;;;;;5021333;28;20496;-75
2022/12/24 05:38:35;;;;;;;54.08;11.85;;;8.10;99.90;;;;;;5020168;28;20079;-75
2022/12/24 05:41:01;;;;;;;65.10;14.57;;;8.10;99.90;;;;;;5019582;28;20116;-75
2022/12/24 05:43:26;;;;;;;59.60;12.23;;;8.10;99.90;;;;;;5020260;28;20438;-76
2022/12/24 05:45:57;;;;;;;60.55;12.77;;;8.00;99.90;;;;;;5021000;28;20041;-75
2022/12/24 05:48:23;;;;;;;59.47;13.77;;;8.10;99.90;;;;;;5021134;28;20041;-76
2022/12/24 05:50:48;;;;;;;69.47;13.77;;;8.00;99.90;;;;;;5018726;28;20736;-76
2022/12/24 05:53:17;;;;;;;77.65;14.75;;;8.00;99.90;;;;;;5019507;28;20045;-76
2022/12/24 05:55:43;;;;;;;73.22;12.20;;;8.00;99.90;;;;;;5019091;28;20045;-75
2022/12/24 05:58:08;;;;;;;49.38;11.75;;;7.90;99.90;;;;;;5017081;28;20080;-75
2022/12/24 06:00:34;;;;;;;56.15;12.02;;;7.90;99.90;;;;;;5021238;28;20064;-76
2022/12/24 06:03:00;;;;;;;57.97;12.20;;;7.90;99.90;;;;;;5018612;28;20057;-76
2022/12/24 06:05:25;;;;;;;51.22;12.45;;;7.90;99.90;;;;;;5016676;28;20077;-75
2022/12/24 06:07:51;;;;;;;69.95;12.10;;;7.90;99.90;;;;;;5019883;28;20041;-76
2022/12/24 06:10:17;;;;;;;72.07;12.30;;;7.90;99.90;;;;;;5018671;28;20499;-74
2022/12/24 06:12:42;;;;;;;73.28;12.32;;;7.90;99.90;;;;;;5019946;28;20128;-76
2022/12/24 06:15:08;;;;;;;56.83;12.18;;;7.90;99.90;;;;;;5020064;28;20130;-76
2022/12/24 06:17:34;;;;;;;66.60;11.70;;;7.90;99.90;;;;;;5019219;28;20087;-75
2022/12/24 06:20:00;;;;;;;57.13;12.07;;;7.90;99.90;;;;;;5021547;28;20049;-75
2022/12/24 06:22:25;;;;;;;57.78;11.57;;;7.90;99.90;;;;;;5017340;28;20041;-76
2022/12/24 06:24:51;;;;;;;66.20;12.70;;;7.90;99.90;;;;;;5018878;28;20053;-76
2022/12/24 06:27:17;;;;;;;65.45;13.07;;;7.90;99.90;;;;;;5024618;28;20049;-75
2022/12/24 06:29:42;;;;;;;59.95;12.02;;;7.90;99.90;;;;;;5023404;28;20049;-75
2022/12/24 06:32:08;;;;;;;76.35;13.52;;;8.00;99.90;;;;;;5017344;28;20049;-75
2022/12/24 06:34:34;;;;;;;64.28;14.70;;;8.00;99.90;;;;;;5001446;28;20041;-75
2022/12/24 06:36:59;;;;;;;66.00;13.68;;;8.00;99.90;;;;;;5021004;28;20136;-75
2022/12/24 06:39:25;;;;;;;68.38;14.35;;;8.00;99.90;;;;;;5018238;28;20053;-75
2022/12/24 06:41:52;;;;;;;67.75;14.57;;;8.00;99.90;;;;;;5017916;28;20128;-75
2022/12/24 06:44:17;;;;;;;54.40;14.90;;;8.00;99.90;;;;;;5017744;28;20049;-75
2022/12/24 06:46:43;;;;;;;73.22;15.82;;;8.10;99.90;;;;;;5016944;28;20053;-75
2022/12/24 06:49:09;;;;;;;71.93;16.33;;;8.10;99.90;;;;;;5018488;28;20088;-75
2022/12/24 06:51:34;;;;;;;87.15;17.85;;;8.10;99.90;;;;;;5020435;28;20079;-75
2022/12/24 06:54:00;;;;;;;62.47;15.85;;;8.10;99.90;;;;;;5019655;28;20049;-75
2022/12/24 06:56:26;;;;;;;52.53;16.85;;;8.10;99.90;;;;;;5024523;28;20045;-75
2022/12/24 06:58:51;;;;;;;98.60;18.80;;;8.10;99.90;;;;;;5020830;28;20084;-75
2022/12/24 07:01:19;;;;;;;61.30;15.98;;;8.10;99.90;;;;;;5017654;28;20633;-75
2022/12/24 07:03:44;;;;;;;75.28;16.63;;;8.20;99.90;;;;;;5018348;28;20049;-75
2022/12/24 07:06:24;;;;;;;90.30;20.05;;;8.10;99.90;;;;;;5017786;28;20060;-75
2022/12/24 07:08:50;;;;;;;74.75;17.42;;;8.10;99.90;;;;;;5017496;28;20049;-75
2022/12/24 07:11:16;;;;;;;77.65;17.08;;;8.10;99.90;;;;;;5018686;28;20131;-75
2022/12/24 07:13:42;;;;;;;65.75;16.67;;;8.10;99.90;;;;;;5018109;28;20052;-75
2022/12/24 07:16:08;;;;;;;77.28;19.35;;;8.20;99.90;;;;;;5033872;28;20045;-75
2022/12/24 07:18:33;;;;;;;65.15;15.52;;;8.20;99.90;;;;;;5016694;28;20041;-75
2022/12/24 07:21:00;;;;;;;70.32;15.73;;;8.20;99.90;;;;;;5017782;28;20085;-75
2022/12/24 07:23:26;;;;;;;64.07;17.10;;;8.20;99.90;;;;;;5018245;28;20093;-75
2022/12/24 07:25:51;;;;;;;81.70;16.73;;;8.20;99.90;;;;;;5016642;28;20452;-75
2022/12/24 07:28:17;;;;;;;66.47;16.02;;;8.20;99.90;;;;;;5019682;28;20052;-75
2022/12/24 07:30:43;;;;;;;62.72;17.27;;;8.20;99.90;;;;;;5023536;28;20068;-75
2022/12/24 07:33:08;;;;;;;63.30;17.25;;;8.30;99.90;;;;;;5020024;28;20057;-75
2022/12/24 07:35:34;;;;;;;97.55;17.88;;;8.20;99.90;;;;;;5016366;28;20045;-76
2022/12/24 07:38:01;;;;;;;63.50;15.77;;;8.20;99.90;;;;;;5019219;28;20648;-75
2022/12/24 07:40:28;;;;;;;73.15;16.75;;;8.30;99.90;;;;;;5031622;28;20037;-75
2022/12/24 07:42:54;;;;;;;63.80;16.48;;;8.30;99.90;;;;;;5018412;28;20053;-75
2022/12/24 07:45:19;;;;;;;80.65;15.35;;;8.30;99.90;;;;;;5023037;28;20491;-75
2022/12/24 07:47:45;;;;;;;55.95;13.70;;;8.30;99.90;;;;;;5019828;28;20048;-75
2022/12/24 07:50:11;;;;;;;60.15;14.15;;;8.30;99.90;;;;;;5020165;28;20041;-76
2022/12/24 07:52:37;;;;;;;63.40;16.10;;;8.30;99.90;;;;;;5017099;28;20042;-76
2022/12/24 07:55:05;;;;;;;67.97;16.20;;;8.30;99.90;;;;;;5020092;28;20052;-76
2022/12/24 07:57:31;;;;;;;69.97;16.92;;;8.30;99.90;;;;;;5015931;28;20085;-75
2022/12/24 07:59:56;;;;;;;61.50;14.48;;;8.30;99.90;;;;;;5018899;28;20150;-76
2022/12/24 08:02:22;;;;;;;54.58;15.07;;;8.30;99.90;;;;;;5018847;28;20693;-75
2022/12/24 08:04:48;;;;;;;71.85;16.58;;;8.40;99.90;;;;;;5021322;28;20064;-75
2022/12/24 08:07:13;;;;;;;54.22;15.45;;;8.40;99.90;;;;;;5021455;28;20392;-75
2022/12/24 08:09:39;;;;;;;53.42;13.07;;;8.40;99.90;;;;;;5017295;28;20140;-75
2022/12/24 08:12:05;;;;;;;64.28;14.85;;;8.40;99.90;;;;;;5019389;28;20453;-75
2022/12/24 08:14:31;;;;;;;52.33;13.23;;;8.40;99.90;;;;;;5020210;28;20065;-75
2022/12/24 08:16:56;;;;;;;80.35;15.60;;;8.40;99.90;;;;;;5022115;28;20529;-75
2022/12/24 08:19:23;;;;;;;54.95;14.20;;;8.40;99.90;;;;;;5019517;28;20048;-75
2022/12/24 08:21:49;;;;;;;53.30;14.20;;;8.40;99.90;;;;;;5021312;28;20084;-75
2022/12/24 08:24:15;;;;;;;47.40;13.73;;;8.40;99.90;;;;;;5020952;28;20053;-75
2022/12/24 08:26:41;;;;;;;40.42;13.43;;;8.40;99.90;;;;;;5012399;28;20091;-76
2022/12/24 08:29:07;;;;;;;64.75;15.02;;;8.40;99.90;;;;;;5005948;28;20057;-75
2022/12/24 08:31:36;;;;;;;72.85;15.77;;;8.40;99.90;;;;;;5013301;28;20525;-75
2022/12/24 08:34:03;;;;;;;61.58;15.30;;;8.40;99.90;;;;;;5012149;28;20099;-75
2022/12/24 08:36:29;;;;;;;67.50;15.47;;;8.40;99.90;;;;;;5005081;28;20092;-76
2022/12/24 08:38:55;;;;;;;71.05;14.57;;;8.40;99.90;;;;;;5013819;28;20304;-76
2022/12/24 08:41:20;;;;;;;65.15;13.88;;;8.40;99.90;;;;;;5013899;28;20630;-75
2022/12/24 08:43:46;;;;;;;54.83;15.48;;;8.40;99.90;;;;;;5008991;28;20103;-75
2022/12/24 08:46:12;;;;;;;60.47;13.20;;;8.40;99.90;;;;;;5006774;28;21242;-76
2022/12/24 08:48:37;;;;;;;56.65;16.10;;;8.40;99.90;;;;;;4999502;28;20447;-75
2022/12/24 08:51:10;;;;;;;63.55;15.55;;;8.50;99.90;;;;;;5008071;28;20050;-75
2022/12/24 08:53:37;;;;;;;61.58;12.82;;;8.50;99.90;;;;;;5010604;28;20049;-75
2022/12/24 08:56:05;;;;;;;65.05;14.88;;;8.50;99.90;;;;;;5010347;28;20053;-75
2022/12/24 08:58:31;;;;;;;70.18;16.50;;;8.50;99.90;;;;;;5014151;28;20133;-75
2022/12/24 09:00:57;;;;;;;49.40;14.68;;;8.50;99.90;;;;;;5016149;28;20045;-75
2022/12/24 09:03:23;;;;;;;69.65;16.42;;;8.60;99.90;;;;;;5014187;28;21001;-75
2022/12/24 09:05:48;;;;;;;68.13;17.88;;;8.60;99.90;;;;;;5015294;28;20042;-75
2022/12/24 09:08:14;;;;;;;60.42;20.42;;;8.50;99.90;;;;;;5019918;28;20123;-75
2022/12/24 09:10:40;;;;;;;69.88;16.25;;;8.60;99.90;;;;;;5016904;28;20095;-75
2022/12/24 09:13:05;;;;;;;77.22;16.58;;;8.60;99.90;;;;;;5019299;28;20120;-75
2022/12/24 09:15:32;;;;;;;81.40;19.30;;;8.60;99.90;;;;;;5017847;28;20049;-74
2022/12/24 09:17:58;;;;;;;68.38;17.17;;;8.70;99.90;;;;;;5018381;28;20071;-74
2022/12/24 09:20:24;;;;;;;72.55;17.60;;;8.60;99.90;;;;;;5017000;28;20800;-75
2022/12/24 09:22:49;;;;;;;73.60;17.20;;;8.70;99.90;;;;;;5018598;28;20229;-76
2022/12/24 09:25:15;;;;;;;57.97;17.27;;;8.70;99.90;;;;;;5014339;28;20128;-76
2022/12/24 09:27:41;;;;;;;47.78;15.52;;;8.70;99.90;;;;;;4996813;28;20145;-75
2022/12/24 09:30:07;;;;;;;51.35;15.05;;;8.70;99.90;;;;;;5022019;28;20055;-75
2022/12/24 09:32:33;;;;;;;61.42;15.65;;;8.80;99.90;;;;;;5022530;28;20040;-76
2022/12/24 09:34:59;;;;;;;73.70;15.82;;;8.80;99.90;;;;;;5005145;28;20045;-76
2022/12/24 09:37:26;;;;;;;77.45;20.50;;;8.80;99.90;;;;;;5012807;28;21897;-75
2022/12/24 09:39:51;;;;;;;55.72;16.95;;;8.80;99.90;;;;;;5015791;28;20042;-75
2022/12/24 09:42:43;;;;;;;58.42;16.88;;;8.80;99.90;;;;;;5017293;28;20607;-75
2022/12/24 09:45:25;;;;;;;61.92;16.25;;;8.90;99.90;;;;;;4997351;28;20064;-76
2022/12/24 09:47:56;;;;;;;59.13;15.60;;;8.90;99.90;;;;;;5015295;28;20057;-75
2022/12/24 09:50:27;;;;;;;65.07;17.42;;;8.90;99.90;;;;;;5018585;28;20495;-75
2022/12/24 09:52:54;;;;;;;71.00;16.73;;;9.00;99.90;;;;;;5014163;28;20582;-76
2022/12/24 09:55:32;;;;;;;76.07;19.83;;;9.00;99.90;;;;;;5016567;28;20062;-76
2022/12/24 09:58:01;;;;;;;80.05;18.38;;;9.10;99.90;;;;;;5016729;28;20552;-76
2022/12/24 10:00:35;;;;;;;67.47;17.55;;;9.10;99.90;;;;;;5018056;28;20042;-77
2022/12/24 10:03:01;;;;;;;53.10;16.08;;;9.00;99.90;;;;;;5014659;28;20056;-77
2022/12/24 10:05:59;;;;;;;73.10;18.75;;;9.10;99.90;;;;;;5014613;28;20038;-75
2022/12/24 10:08:42;;;;;;;62.35;16.98;;;9.20;99.90;;;;;;5010353;28;20593;-75
2022/12/24 10:11:36;;;;;;;67.95;17.38;;;9.10;99.90;;;;;;5004846;28;20088;-76
2022/12/24 10:14:38;;;;;;;68.70;17.58;;;9.10;99.90;;;;;;4967803;28;20069;-76
2022/12/24 10:17:24;;;;;;;45.20;15.10;;;9.10;99.90;;;;;;5005004;28;20088;-76
2022/12/24 10:20:10;;;;;;;67.55;15.38;;;9.10;99.90;;;;;;5008740;28;20049;-75
2022/12/24 10:23:06;;;;;;;51.78;14.27;;;9.10;99.90;;;;;;5011217;28;20089;-75
2022/12/24 10:26:03;;;;;;;54.50;13.57;;;9.20;99.90;;;;;;5017144;28;20046;-76
2022/12/24 10:28:52;;;;;;;45.63;13.65;;;9.10;99.90;;;;;;5010815;28;20053;-75
2022/12/24 10:31:38;;;;;;;40.35;13.23;;;9.10;99.90;;;;;;5010443;28;20163;-75
2022/12/24 10:34:23;;;;;;;39.85;10.52;;;9.10;99.90;;;;;;5004052;28;20179;-75
2022/12/24 10:36:50;;;;;;;49.80;15.02;;;9.10;99.90;;;;;;5016054;28;20052;-75
2022/12/24 10:39:23;;;;;;;44.40;13.77;;;9.10;99.90;;;;;;5017222;28;20061;-75
2022/12/24 10:41:52;;;;;;;38.45;11.82;;;9.20;99.90;;;;;;5015217;28;20053;-74
2022/12/24 10:44:21;;;;;;;38.20;10.85;;;9.20;99.90;;;;;;5018589;28;20095;-75
2022/12/24 10:46:47;;;;;;;49.15;12.20;;;9.20;99.90;;;;;;5013787;28;20141;-74
2022/12/24 10:49:28;;;;;;;49.33;11.20;;;9.20;99.90;;;;;;5016844;28;20418;-74
2022/12/24 10:52:02;;;;;;;42.70;11.88;;;9.20;99.90;;;;;;5016059;28;20158;-74
2022/12/24 10:54:33;;;;;;;44.58;12.50;;;9.20;99.90;;;;;;5018817;28;20103;-74
2022/12/24 10:57:01;;;;;;;40.78;12.05;;;9.20;99.90;;;;;;5017427;28;20053;-74
2022/12/24 10:59:41;;;;;;;49.08;11.65;;;9.20;99.90;;;;;;5015538;28;20087;-75
2022/12/24 11:02:28;;;;;;;34.45;10.65;;;9.30;99.90;;;;;;5017124;28;20068;-74
2022/12/24 11:04:54;;;;;;;45.25;12.50;;;9.40;99.90;;;;;;5000146;28;20136;-74
2022/12/24 11:07:22;;;;;;;55.55;12.95;;;9.40;99.90;;;;;;5016204;28;20057;-75
2022/12/24 11:09:58;;;;;;;37.90;13.32;;;9.40;99.90;;;;;;5016666;28;20045;-75
2022/12/24 11:12:29;;;;;;;42.88;13.13;;;9.40;99.90;;;;;;5017094;28;20461;-74
2022/12/24 11:15:05;;;;;;;43.83;12.70;;;9.40;99.90;;;;;;5013191;28;20053;-75
2022/12/24 11:17:32;;;;;;;73.22;13.50;;;9.40;99.90;;;;;;5017262;28;20077;-75
2022/12/24 11:19:59;;;;;;;51.88;13.05;;;9.50;99.90;;;;;;5013808;28;20042;-75
2022/12/24 11:22:30;;;;;;;53.17;12.68;;;9.50;99.90;;;;;;5020386;28;20064;-76
2022/12/24 11:25:16;;;;;;;39.25;11.52;;;9.50;99.90;;;;;;5016405;28;20053;-75
2022/12/24 11:27:46;;;;;;;42.65;11.93;;;9.50;99.90;;;;;;5019170;28;20132;-74
2022/12/24 11:30:21;;;;;;;43.55;11.98;;;9.50;99.90;;;;;;5018093;28;20234;-74
2022/12/24 11:33:07;;;;;;;45.05;12.38;;;9.50;99.90;;;;;;5019571;28;20060;-74
2022/12/24 11:35:39;;;;;;;57.15;12.35;;;9.50;99.90;;;;;;5018141;28;20111;-74
2022/12/24 11:38:05;;;;;;;36.33;11.77;;;9.60;99.90;;;;;;5017020;28;21372;-74
2022/12/24 11:40:46;;;;;;;56.28;13.55;;;9.60;99.90;;;;;;5014649;28;20049;-75
2022/12/24 11:43:15;;;;;;;60.38;17.20;;;9.60;99.90;;;;;;5015523;28;20104;-74
2022/12/24 11:45:54;;;;;;;62.17;14.65;;;9.60;99.90;;;;;;5023213;28;20065;-75
2022/12/24 11:48:31;;;;;;;54.10;12.30;;;9.60;99.90;;;;;;5016607;28;20092;-75
2022/12/24 11:50:59;;;;;;;56.78;11.93;;;9.60;99.90;;;;;;5015445;28;20049;-74
2022/12/24 11:53:51;;;;;;;64.13;15.27;;;9.60;99.90;;;;;;5015759;28;20077;-75
2022/12/24 11:56:29;;;;;;;47.63;13.95;;;9.60;99.90;;;;;;4982942;28;20057;-75
2022/12/24 11:59:00;;;;;;;48.78;12.27;;;9.60;99.90;;;;;;5017735;28;20473;-74
2022/12/24 12:01:35;;;;;;;51.10;13.68;;;9.60;99.90;;;;;;5019000;28;20045;-75
2022/12/24 12:04:17;;;;;;;68.47;15.48;;;9.60;99.90;;;;;;5018270;28;20413;-74
2022/12/24 12:06:57;;;;;;;57.22;12.52;;;9.70;99.90;;;;;;5018213;28;20061;-76
2022/12/24 12:09:30;;;;;;;50.58;13.07;;;9.70;99.90;;;;;;5016603;28;20103;-75
2022/12/24 12:12:03;;;;;;;44.63;10.50;;;9.70;99.90;;;;;;5016704;28;20612;-74
2022/12/24 12:14:39;;;;;;;47.67;11.02;;;9.70;99.90;;;;;;5016833;28;20057;-75
2022/12/24 12:17:32;;;;;;;55.63;12.10;;;9.70;99.90;;;;;;5016449;28;20045;-75
2022/12/24 12:20:05;;;;;;;38.42;12.45;;;9.70;99.90;;;;;;5018570;28;20049;-75
2022/12/24 12:22:54;;;;;;;42.20;10.68;;;9.80;99.90;;;;;;5014133;28;20081;-75
2022/12/24 12:25:26;;;;;;;40.17;9.73;;;9.80;99.90;;;;;;5016420;28;20042;-75
2022/12/24 12:27:54;;;;;;;47.47;11.43;;;9.70;99.90;;;;;;5016644;28;20124;-75
2022/12/24 12:30:21;;;;;;;;;;;9.80;99.90;;;;;;5014797;28;20053;-75
2022/12/24 12:32:56;;;;;;;41.10;10.15;;;9.70;99.90;;;;;;5019045;28;19929;-75
2022/12/24 12:35:35;;;;;;;47.95;10.55;;;9.80;99.90;;;;;;5014184;28;20054;-75
2022/12/24 12:38:04;;;;;;;32.60;9.23;;;9.80;99.90;;;;;;5015097;28;20131;-75
2022/12/24 12:41:08;;;;;;;48.83;11.13;;;9.80;99.90;;;;;;5016449;28;20045;-75
2022/12/24 12:43:45;;;;;;;36.58;9.73;;;9.70;99.90;;;;;;5016388;28;20136;-76
2022/12/24 12:46:27;;;;;;;40.80;10.25;;;9.70;99.90;;;;;;5002546;28;20083;-76
2022/12/24 12:48:59;;;;;;;54.38;10.30;;;9.70;99.90;;;;;;5024318;28;20057;-77
2022/12/24 12:51:33;;;;;;;32.05;7.68;;;9.70;99.90;;;;;;5021597;28;20426;-77
2022/12/24 12:54:21;;;;;;;35.50;8.77;;;9.70;99.90;;;;;;5020612;28;20049;-77
2022/12/24 12:56:51;;;;;;;40.13;9.02;;;9.70;99.90;;;;;;5021136;28;20073;-77
2022/12/24 12:59:36;;;;;;;40.47;8.60;;;9.70;99.90;;;;;;5020699;28;20045;-76